ZPPP/KMG METAR and TAF weather

Enter ICAO airport designator
Station Type Date Time Source
ZPPP METAR 2022/12/08 13:00 UTC NOAA

ZPPP 081300Z 21004MPS CAVOK 10/M02 Q1020 NOSIG


Station Type Date Time Source
ZPPP Decoded METAR 2022/12/08 13:00 UTC NOAA

Kunming, China (ZPPP) 25-01N 102-41E 1892M
Dec 08, 2022 - 08:00 AM EST / 2022.12.08 1300 UTC
Wind: from the SSW (210 degrees) at 9 MPH (8 KT):0
Visibility: greater than 7 mile(s):0
Temperature: 50 F (10 C)
Dew Point: 28 F (-2 C)
Relative Humidity: 42%
Pressure (altimeter): 30.12 in. Hg (1020 hPa)
ob: ZPPP 081300Z 21004MPS CAVOK 10/M02 Q1020 NOSIG
cycle: 13

Station Type Date Time Source
ZPPP TAF 2022/12/08 12:03 UTC NOAA

TAF ZPPP 080902Z 0812/0912 22006MPS 9999 SCT026 TX19/0908Z TN06/0823Z

Example: see airport list